createdAt,value
2018-06-12T00:00:27.870Z,18.27
2018-06-12T00:05:30.936Z,19.27
2018-06-12T00:10:33.981Z,19.57
2018-06-12T00:15:37.053Z,24.10
2018-06-12T00:20:40.105Z,21.07
2018-06-12T00:25:43.145Z,22.40
2018-06-12T00:30:46.593Z,23.53
2018-06-12T00:35:49.637Z,21.83
2018-06-12T00:40:52.685Z,18.70
2018-06-12T00:45:55.769Z,19.47
2018-06-12T00:50:58.801Z,20.47
2018-06-12T00:56:01.873Z,20.27
2018-06-12T01:01:05.012Z,20.07
2018-06-12T01:06:08.070Z,24.30
2018-06-12T01:11:11.140Z,26.60
2018-06-12T01:16:14.229Z,23.63
2018-06-12T01:21:17.276Z,30.20
2018-06-12T01:26:20.921Z,23.07
2018-06-12T01:31:23.991Z,21.87
2018-06-12T01:36:27.040Z,22.90
2018-06-12T01:41:30.077Z,22.33
2018-06-12T01:46:33.124Z,24.13
2018-06-12T01:51:36.176Z,24.47
2018-06-12T01:56:39.225Z,22.90
2018-06-12T02:01:42.296Z,26.13
2018-06-12T02:06:45.333Z,20.30
2018-06-12T02:11:48.376Z,21.53
2018-06-12T02:16:51.425Z,20.00
2018-06-12T02:21:54.466Z,18.93
2018-06-12T02:26:57.396Z,22.47
2018-06-12T02:32:00.452Z,22.97
2018-06-12T02:37:03.491Z,18.67
2018-06-12T02:42:06.547Z,21.73
2018-06-12T02:47:09.585Z,23.27
2018-06-12T02:52:13.268Z,19.80
2018-06-12T02:57:16.388Z,20.87
2018-06-12T03:02:19.452Z,20.90
2018-06-12T03:07:22.625Z,24.13
2018-06-12T03:12:25.665Z,19.40
2018-06-12T03:17:28.725Z,16.83
2018-06-12T03:22:31.832Z,20.07
2018-06-12T03:27:34.885Z,22.80
2018-06-12T03:32:37.953Z,19.93
2018-06-12T03:37:41.018Z,18.57
2018-06-12T03:42:44.065Z,16.03
2018-06-12T03:47:47.117Z,19.83
2018-06-12T03:52:50.161Z,16.80
2018-06-12T03:57:53.216Z,17.40
2018-06-12T04:02:56.296Z,20.43
2018-06-12T04:07:59.381Z,19.20
2018-06-12T04:13:02.436Z,25.93
2018-06-12T04:18:05.519Z,17.70
2018-06-12T04:23:08.561Z,18.20
2018-06-12T04:28:12.254Z,15.50
2018-06-12T04:33:15.307Z,13.97
2018-06-12T04:38:18.344Z,15.90
2018-06-12T04:43:21.447Z,22.50
2018-06-12T04:48:24.497Z,15.80
2018-06-12T04:53:27.581Z,13.47
2018-06-12T04:58:30.625Z,13.60
2018-06-12T05:03:33.773Z,11.37
2018-06-12T05:08:36.833Z,13.90
2018-06-12T05:13:40.129Z,15.77
2018-06-12T05:18:43.172Z,12.27
2018-06-12T05:23:46.272Z,8.50
2018-06-12T05:28:49.353Z,15.03
2018-06-12T05:33:52.268Z,8.80
2018-06-12T05:38:55.321Z,16.83
2018-06-12T05:43:58.421Z,12.90
2018-06-12T05:49:01.817Z,9.43
2018-06-12T05:54:04.925Z,9.30
2018-06-12T05:59:07.975Z,14.17
2018-06-12T06:04:11.136Z,13.80
2018-06-12T06:09:14.190Z,12.67
2018-06-12T06:14:17.241Z,8.50
2018-06-12T06:19:20.277Z,6.90
2018-06-12T06:24:23.318Z,7.03
2018-06-12T06:29:26.383Z,7.93
2018-06-12T06:34:30.051Z,6.10
2018-06-12T06:39:33.107Z,9.30
2018-06-12T06:44:37.229Z,6.03
2018-06-12T06:49:40.272Z,7.80
2018-06-12T06:54:43.340Z,9.83
2018-06-12T06:59:46.381Z,9.77
2018-06-12T07:04:49.440Z,7.43
2018-06-12T07:09:52.478Z,8.63
2018-06-12T07:14:55.572Z,10.20
2018-06-12T07:19:58.889Z,7.77
2018-06-12T07:25:01.941Z,9.63
2018-06-12T07:30:04.999Z,7.73
2018-06-12T07:35:08.036Z,10.00
2018-06-12T07:40:11.089Z,5.53
2018-06-12T07:45:14.132Z,6.20
2018-06-12T07:50:17.748Z,5.93
2018-06-12T07:55:20.785Z,8.63
2018-06-12T08:00:23.827Z,9.17
2018-06-12T08:05:26.889Z,9.67
2018-06-12T08:10:29.949Z,5.93
2018-06-12T08:15:33.028Z,6.50
2018-06-12T08:20:36.112Z,4.03
2018-06-12T08:25:40.435Z,11.17
2018-06-12T08:30:43.478Z,8.50
2018-06-12T08:35:46.522Z,8.57
2018-06-12T08:40:49.568Z,6.20
2018-06-12T08:45:52.600Z,5.80
2018-06-12T08:50:55.636Z,8.37
2018-06-12T08:55:58.680Z,8.60
2018-06-12T09:01:01.729Z,6.40
2018-06-12T09:06:05.082Z,5.47
2018-06-12T09:11:10.144Z,7.33
2018-06-12T09:16:13.204Z,6.23
2018-06-12T09:21:16.249Z,6.27
2018-06-12T09:26:19.321Z,6.23
2018-06-12T09:31:22.367Z,8.20
2018-06-12T09:36:30.876Z,6.53
2018-06-12T09:41:33.932Z,6.43
2018-06-12T09:46:36.975Z,6.47
2018-06-12T09:51:40.101Z,9.70
2018-06-12T09:56:43.136Z,6.60
2018-06-12T10:01:46.187Z,4.80
2018-06-12T10:06:49.258Z,6.17
2018-06-12T10:11:52.306Z,8.43
2018-06-12T10:16:55.356Z,5.33
2018-06-12T10:21:58.464Z,5.37
2018-06-12T10:27:01.521Z,7.23
2018-06-12T10:32:04.568Z,8.93
2018-06-12T10:37:07.621Z,6.30
2018-06-12T10:42:10.705Z,6.57
2018-06-12T10:47:13.744Z,7.63
2018-06-12T10:52:16.788Z,6.23
2018-06-12T10:57:19.836Z,6.17
2018-06-12T11:02:22.876Z,7.37
2018-06-12T11:07:25.947Z,5.27
2018-06-12T11:12:29.003Z,6.73
2018-06-12T11:17:32.060Z,5.13
2018-06-12T11:22:35.093Z,4.97
2018-06-12T11:27:38.206Z,7.30
2018-06-12T11:32:41.268Z,7.23
2018-06-12T11:37:44.312Z,6.10
2018-06-12T11:42:47.345Z,7.13
2018-06-12T11:47:50.384Z,7.17
2018-06-12T11:52:53.428Z,6.03
2018-06-12T11:57:57.498Z,6.40
2018-06-12T12:03:00.549Z,7.00
2018-06-12T12:08:03.605Z,7.50
2018-06-12T12:13:06.657Z,6.40
2018-06-12T12:18:09.806Z,5.90
2018-06-12T12:23:12.856Z,7.37
2018-06-12T12:28:15.921Z,9.37
2018-06-12T12:33:19.078Z,8.17
2018-06-12T12:38:22.132Z,8.47
2018-06-12T12:43:25.213Z,6.97
2018-06-12T12:48:28.372Z,6.43
2018-06-12T12:53:31.420Z,9.43
2018-06-12T12:58:34.353Z,10.33
2018-06-12T13:03:37.601Z,6.27
2018-06-12T13:08:40.659Z,6.07
2018-06-12T13:13:43.784Z,7.43
2018-06-12T13:18:46.857Z,10.23
2018-06-12T13:23:53.310Z,7.87
2018-06-12T13:28:56.337Z,8.30
2018-06-12T13:33:59.396Z,9.40
2018-06-12T13:39:04.684Z,7.03
2018-06-12T13:44:08.816Z,4.97
2018-06-12T13:49:11.853Z,7.67
2018-06-12T13:54:14.909Z,7.10
2018-06-12T13:59:17.949Z,8.27
2018-06-12T14:04:20.995Z,6.27
2018-06-12T14:09:24.177Z,5.87
2018-06-12T14:14:27.232Z,6.93
2018-06-12T14:19:31.009Z,6.70
2018-06-12T14:24:34.094Z,9.33
2018-06-12T14:29:37.205Z,6.90
2018-06-12T14:34:40.329Z,8.27
2018-06-12T14:39:43.377Z,6.57
2018-06-12T14:44:46.533Z,6.37
2018-06-12T14:49:49.654Z,5.97
2018-06-12T14:54:52.486Z,8.77
2018-06-12T14:59:55.533Z,4.33
2018-06-12T15:04:59.137Z,18.13
2018-06-12T15:10:02.458Z,11.30
2018-06-12T15:15:21.978Z,6.63
2018-06-12T15:20:25.105Z,6.50
2018-06-12T15:25:28.169Z,8.77
2018-06-12T15:30:31.290Z,9.87
2018-06-12T15:35:34.719Z,7.40
2018-06-12T15:40:37.801Z,10.20
2018-06-12T15:45:40.873Z,5.87
2018-06-12T15:50:44.041Z,8.60
2018-06-12T15:55:47.144Z,11.60
2018-06-12T16:00:50.207Z,5.47
2018-06-12T16:05:53.279Z,10.03
2018-06-12T16:10:56.338Z,5.93
2018-06-12T16:15:59.512Z,10.20
2018-06-12T16:21:02.581Z,9.30
2018-06-12T16:26:05.767Z,8.80
2018-06-12T16:31:08.862Z,11.47
2018-06-12T16:36:12.008Z,11.33
2018-06-12T16:41:15.095Z,9.17
2018-06-12T16:46:18.185Z,10.30
2018-06-12T16:51:21.257Z,11.43
2018-06-12T16:56:24.305Z,12.53
2018-06-12T17:01:27.405Z,9.13
2018-06-12T17:06:30.484Z,12.30
2018-06-12T17:11:33.653Z,12.50
2018-06-12T17:16:36.721Z,12.97
2018-06-12T17:21:39.860Z,16.37
2018-06-12T17:26:43.684Z,14.53
2018-06-12T17:31:46.803Z,14.57
2018-06-12T17:36:49.913Z,13.13
2018-06-12T17:41:53.913Z,13.83
2018-06-12T17:46:57.010Z,20.53
2018-06-12T17:52:00.170Z,16.90
2018-06-12T17:57:03.285Z,17.03
2018-06-12T18:02:06.514Z,15.63
2018-06-12T18:07:09.689Z,17.57
2018-06-12T18:12:12.552Z,14.47
2018-06-12T18:17:15.635Z,15.30
2018-06-12T18:22:18.699Z,10.33
2018-06-12T18:27:21.767Z,8.33
2018-06-12T18:32:24.821Z,5.83
2018-06-12T18:37:27.869Z,11.50
2018-06-12T18:42:30.946Z,5.93
2018-06-12T18:47:34.005Z,10.77
2018-06-12T18:52:37.068Z,6.80
2018-06-12T18:57:40.147Z,7.07
2018-06-12T19:02:43.223Z,7.80
2018-06-12T19:07:46.276Z,8.13
2018-06-12T19:12:49.369Z,7.47
2018-06-12T19:17:52.563Z,7.73
2018-06-12T19:22:55.619Z,8.83
2018-06-12T19:27:58.716Z,10.83
2018-06-12T19:33:01.765Z,6.50
2018-06-12T19:38:05.753Z,9.63
2018-06-12T19:43:18.932Z,9.70
2018-06-12T19:48:21.969Z,9.17
2018-06-12T19:53:25.017Z,8.17
2018-06-12T19:58:28.057Z,6.17
2018-06-12T20:03:41.677Z,6.77
2018-06-12T20:08:44.828Z,6.60
2018-06-12T20:13:47.877Z,8.17
2018-06-12T20:18:51.038Z,5.23
2018-06-12T20:23:54.081Z,4.27
2018-06-12T20:28:57.133Z,5.20
2018-06-12T20:34:00.252Z,4.17
2018-06-12T20:39:04.093Z,6.73
2018-06-12T20:44:07.141Z,3.90
2018-06-12T20:49:10.176Z,4.33
2018-06-12T20:54:13.212Z,6.60
2018-06-12T20:59:16.248Z,3.00
2018-06-12T21:04:19.313Z,4.33
2018-06-12T21:09:22.369Z,5.83
2018-06-12T21:14:25.409Z,5.27
2018-06-12T21:19:28.453Z,4.83
2018-06-12T21:24:31.493Z,4.07
2018-06-12T21:29:34.527Z,6.17
2018-06-12T21:34:37.583Z,4.80
2018-06-12T21:39:40.622Z,5.10
2018-06-12T21:44:43.666Z,2.93
2018-06-12T21:49:49.384Z,5.20
2018-06-12T21:54:52.539Z,5.87
2018-06-12T21:59:55.581Z,4.23
2018-06-12T22:04:58.957Z,3.23
2018-06-12T22:10:02.562Z,4.93
2018-06-12T22:15:06.190Z,4.63
2018-06-12T22:20:09.411Z,5.53
2018-06-12T22:25:24.521Z,4.17
2018-06-12T22:30:28.513Z,4.43
2018-06-12T22:35:31.853Z,5.60
2018-06-12T22:40:34.901Z,5.20
2018-06-12T22:45:38.442Z,4.10
2018-06-12T22:50:41.581Z,7.13
2018-06-12T22:55:50.316Z,6.77
2018-06-12T23:00:54.621Z,6.23
2018-06-12T23:05:58.005Z,4.03
2018-06-12T23:11:01.047Z,4.77
2018-06-12T23:16:04.085Z,3.90
2018-06-12T23:26:32.977Z,6.07
2018-06-12T23:31:36.018Z,7.13
2018-06-12T23:36:39.068Z,5.07
2018-06-12T23:42:09.934Z,5.47
2018-06-12T23:47:13.393Z,4.57
2018-06-12T23:52:16.590Z,4.50
2018-06-12T23:57:19.622Z,4.87
